Time;durP1;ratioP1;P1;durP2;ratioP2;P2;SDS_P1;SDS_P2;PMS_P1;PMS_P2;Temp;Humidity;BMP_temperature;BMP_pressure;BME280_temperature;BME280_humidity;BME280_pressure;Samples;Min_cycle;Max_cycle;Signal;HPM_P1;HPM_P2
2022/12/15 00:41:06;;;;;;;67.90;28.95;;;-0.30;91.20;;;;;;5025344;28;20698;-74
2022/12/15 00:43:33;;;;;;;61.90;28.60;;;-0.40;91.30;;;;;;5023080;28;20268;-75
2022/12/15 00:48:43;;;;;;;65.57;28.02;;;-0.40;91.50;;;;;;5021299;28;20192;-74
2022/12/15 00:51:09;;;;;;;76.23;30.00;;;-0.40;91.70;;;;;;5021098;28;20209;-75
2022/12/15 01:20:58;;;;;;;72.00;30.40;;;-0.60;92.30;;;;;;5025064;28;20216;-74
2022/12/15 01:23:25;;;;;;;68.72;29.65;;;-0.60;92.30;;;;;;5017312;28;20657;-75
2022/12/15 01:25:52;;;;;;;69.68;27.48;;;-0.60;92.30;;;;;;5021859;28;20186;-72
2022/12/15 01:28:19;;;;;;;81.43;31.17;;;-0.70;92.10;;;;;;5019984;28;20189;-74
2022/12/15 01:30:44;;;;;;;72.15;31.33;;;-0.70;92.10;;;;;;5027897;28;20266;-74
2022/12/15 01:33:11;;;;;;;69.77;31.27;;;-0.60;92.10;;;;;;5021471;28;20190;-75
2022/12/15 01:35:37;;;;;;;66.57;28.42;;;-0.60;92.20;;;;;;5022534;28;21020;-75
2022/12/15 01:38:02;;;;;;;73.45;30.90;;;-0.50;92.20;;;;;;5022110;28;20529;-74
2022/12/15 01:40:46;;;;;;;77.87;29.37;;;-0.50;92.00;;;;;;5021753;28;20208;-73
2022/12/15 01:43:23;;;;;;;74.10;29.52;;;-0.60;91.90;;;;;;5021372;28;20212;-74
2022/12/15 01:46:03;;;;;;;75.38;30.52;;;-0.50;91.80;;;;;;5020146;28;20184;-75
2022/12/15 01:48:50;;;;;;;76.00;29.50;;;-0.50;91.70;;;;;;5022708;28;20188;-75
2022/12/15 01:51:27;;;;;;;64.53;27.70;;;-0.50;91.70;;;;;;5016362;28;20309;-73
2022/12/15 01:53:53;;;;;;;70.00;28.52;;;-0.50;91.70;;;;;;5021683;28;20209;-73
2022/12/15 01:56:19;;;;;;;68.03;29.00;;;-0.50;91.70;;;;;;5025676;28;20178;-73
2022/12/15 01:58:48;;;;;;;70.10;29.50;;;-0.60;91.70;;;;;;5021922;28;20453;-75
2022/12/15 02:01:13;;;;;;;68.95;28.65;;;-0.60;91.70;;;;;;5024422;28;20206;-73
2022/12/15 02:03:41;;;;;;;67.83;28.63;;;-0.60;91.70;;;;;;5023992;28;20197;-75
2022/12/15 02:06:08;;;;;;;67.80;28.05;;;-0.60;91.50;;;;;;5018720;28;20687;-73
2022/12/15 02:08:35;;;;;;;77.90;29.55;;;-0.60;91.50;;;;;;5022145;28;20308;-74
2022/12/15 02:11:28;;;;;;;67.72;28.40;;;-0.60;91.50;;;;;;5022837;28;20210;-74
2022/12/15 02:14:01;;;;;;;70.30;29.20;;;-0.60;91.50;;;;;;5017548;28;20210;-73
2022/12/15 02:16:50;;;;;;;73.50;29.15;;;-0.60;91.70;;;;;;5025170;28;20173;-74
2022/12/15 02:19:48;;;;;;;66.93;28.08;;;-0.60;91.70;;;;;;5017546;28;20647;-74
2022/12/15 02:22:46;;;;;;;71.28;29.58;;;-0.60;91.40;;;;;;5021296;28;20193;-74
2022/12/15 02:25:29;;;;;;;73.28;30.30;;;-0.60;91.30;;;;;;5018440;28;20190;-74
2022/12/15 02:28:09;;;;;;;67.05;28.00;;;-0.60;91.20;;;;;;5018313;28;20201;-75
2022/12/15 02:31:48;;;;;;;73.50;29.00;;;-0.60;91.30;;;;;;5029352;28;20236;-74
2022/12/15 02:33:34;;;;;;;74.05;30.23;;;-0.60;91.20;;;;;;5016976;28;20213;-75
2022/12/15 02:36:11;;;;;;;69.50;30.00;;;-0.50;91.30;;;;;;5021468;28;20193;-73
2022/12/15 02:38:40;;;;;;;65.90;28.15;;;-0.50;91.30;;;;;;5019446;28;20169;-74
2022/12/15 02:41:42;;;;;;;75.65;29.92;;;-0.60;91.30;;;;;;5025262;28;20572;-73
2022/12/15 02:44:15;;;;;;;76.57;30.17;;;-0.60;91.30;;;;;;5029987;28;20196;-74
2022/12/15 02:47:10;;;;;;;70.82;29.05;;;-0.60;91.30;;;;;;5024638;28;20201;-74
2022/12/15 02:49:42;;;;;;;79.63;30.95;;;-0.60;91.30;;;;;;5023983;28;20181;-74
2022/12/15 02:52:22;;;;;;;69.55;30.02;;;-0.60;91.20;;;;;;5026932;28;20568;-74
2022/12/15 02:55:09;;;;;;;77.93;31.80;;;-0.60;91.30;;;;;;5029747;28;20231;-75
2022/12/15 02:57:46;;;;;;;65.53;28.40;;;-0.60;91.40;;;;;;5022197;28;20264;-74
2022/12/15 03:00:14;;;;;;;81.18;29.95;;;-0.70;91.30;;;;;;5023699;28;20212;-74
2022/12/15 03:02:44;;;;;;;74.20;29.75;;;-0.70;91.30;;;;;;5030795;28;20220;-73
2022/12/15 03:05:11;;;;;;;77.05;31.45;;;-0.60;91.40;;;;;;5019238;28;20586;-74
2022/12/15 03:07:37;;;;;;;77.70;30.83;;;-0.70;91.20;;;;;;5023313;28;20249;-72
2022/12/15 03:10:06;;;;;;;80.32;32.50;;;-0.80;91.20;;;;;;5023890;28;20216;-73
2022/12/15 03:12:31;;;;;;;73.63;29.85;;;-0.80;91.30;;;;;;5025808;28;20195;-74
2022/12/15 03:14:57;;;;;;;65.57;27.63;;;-0.80;91.40;;;;;;5022903;28;20293;-73
2022/12/15 03:17:23;;;;;;;63.73;27.60;;;-0.70;91.50;;;;;;5024335;28;20239;-73
2022/12/15 03:19:48;;;;;;;74.10;28.80;;;-0.60;91.50;;;;;;5026984;28;20185;-74
2022/12/15 03:22:14;;;;;;;76.07;28.10;;;-0.70;91.30;;;;;;5025877;28;20892;-74
2022/12/15 03:24:39;;;;;;;72.10;27.97;;;-0.80;91.10;;;;;;5018439;28;20178;-73
2022/12/15 03:27:05;;;;;;;72.23;29.53;;;-0.80;91.00;;;;;;5025681;28;20192;-73
2022/12/15 03:29:30;;;;;;;75.00;29.80;;;-0.90;91.00;;;;;;5023710;28;20185;-73
2022/12/15 03:31:56;;;;;;;79.97;30.10;;;-1.00;91.10;;;;;;5022894;28;20186;-74
2022/12/15 03:34:21;;;;;;;74.60;30.00;;;-0.90;91.30;;;;;;5026172;28;20557;-75
2022/12/15 03:36:47;;;;;;;86.20;30.30;;;-0.90;91.40;;;;;;5028970;28;20245;-72
2022/12/15 03:39:13;;;;;;;84.03;33.07;;;-0.80;91.50;;;;;;5023293;28;20247;-75
2022/12/15 03:41:40;;;;;;;74.47;30.20;;;-0.70;91.50;;;;;;5024930;28;20216;-74
2022/12/15 03:44:06;;;;;;;66.78;27.80;;;-0.70;91.70;;;;;;5019175;28;20184;-74
2022/12/15 03:46:32;;;;;;;71.70;27.08;;;-0.60;91.50;;;;;;5028049;28;20177;-74
2022/12/15 03:48:57;;;;;;;75.03;30.00;;;-0.60;91.30;;;;;;5024434;28;20828;-73
2022/12/15 03:51:23;;;;;;;72.73;30.17;;;-0.60;91.20;;;;;;5024010;28;20573;-72
2022/12/15 03:53:49;;;;;;;64.33;27.03;;;-0.50;91.20;;;;;;5029390;28;20343;-75
2022/12/15 03:56:16;;;;;;;76.97;28.37;;;-0.50;91.20;;;;;;5022049;28;20429;-74
2022/12/15 03:58:41;;;;;;;76.80;29.50;;;-0.40;91.20;;;;;;5025127;28;20416;-73
2022/12/15 04:01:12;;;;;;;69.67;29.43;;;-0.40;91.20;;;;;;5026388;28;20630;-73
2022/12/15 04:03:37;;;;;;;70.95;26.33;;;-0.40;91.10;;;;;;5029585;28;20173;-74
2022/12/15 04:06:03;;;;;;;66.27;27.83;;;-0.30;91.00;;;;;;5020240;28;20994;-75
2022/12/15 04:08:29;;;;;;;71.00;28.02;;;-0.30;90.80;;;;;;5028839;28;20186;-74
2022/12/15 04:10:54;;;;;;;65.83;28.97;;;-0.30;90.50;;;;;;5025610;28;20280;-73
2022/12/15 04:13:20;;;;;;;66.20;27.70;;;-0.40;90.20;;;;;;5020009;28;20235;-75
2022/12/15 04:15:46;;;;;;;71.30;28.40;;;-0.40;90.20;;;;;;5026570;28;20300;-74
2022/12/15 04:18:11;;;;;;;69.53;26.60;;;-0.40;90.20;;;;;;5025944;28;20947;-75
2022/12/15 04:20:38;;;;;;;66.43;27.17;;;-0.30;90.30;;;;;;5020404;28;20210;-73
2022/12/15 04:23:06;;;;;;;60.03;26.13;;;-0.40;90.00;;;;;;5020601;28;20276;-75
2022/12/15 05:34:18;;;;;;;72.65;30.17;;;-0.60;91.00;;;;;;5022639;28;20296;-72
2022/12/15 05:36:44;;;;;;;91.97;30.27;;;-0.60;91.00;;;;;;5017961;28;20200;-74
2022/12/15 05:39:10;;;;;;;72.90;30.00;;;-0.50;91.20;;;;;;5027873;28;20648;-72
2022/12/15 05:41:35;;;;;;;74.70;30.00;;;-0.50;91.30;;;;;;5019589;28;20201;-74
2022/12/15 05:44:01;;;;;;;75.43;31.77;;;-0.40;91.30;;;;;;5025982;28;20193;-72
2022/12/15 05:46:26;;;;;;;66.37;28.20;;;-0.40;91.40;;;;;;5025844;28;20185;-74
2022/12/15 05:48:52;;;;;;;66.60;27.23;;;-0.30;91.30;;;;;;5021491;28;20550;-73
2022/12/15 05:51:17;;;;;;;75.10;29.20;;;-0.30;91.30;;;;;;5025195;28;20236;-72
2022/12/15 05:53:43;;;;;;;69.77;29.40;;;-0.20;91.00;;;;;;5020268;28;20231;-73
2022/12/15 05:56:11;;;;;;;76.67;28.53;;;-0.30;90.60;;;;;;5022555;28;20201;-72
2022/12/15 05:58:38;;;;;;;68.60;28.40;;;-0.40;90.50;;;;;;5021022;28;20240;-72
2022/12/15 06:01:10;;;;;;;64.30;28.00;;;-0.40;90.50;;;;;;5022529;28;20220;-73
2022/12/15 06:03:36;;;;;;;84.30;30.40;;;-0.50;90.70;;;;;;5019063;28;20190;-72
2022/12/15 06:06:05;;;;;;;75.22;31.17;;;-0.40;90.90;;;;;;5022812;28;20220;-71
2022/12/15 06:08:33;;;;;;;73.97;30.00;;;-0.40;90.90;;;;;;5016327;28;20186;-72
2022/12/15 06:10:59;;;;;;;67.32;27.33;;;-0.40;90.90;;;;;;5020349;28;20214;-73
2022/12/15 06:13:26;;;;;;;67.35;29.85;;;-0.40;91.00;;;;;;5020619;28;20660;-74
2022/12/15 06:15:59;;;;;;;83.45;31.33;;;-0.40;91.10;;;;;;5022768;28;20178;-73
2022/12/15 06:18:31;;;;;;;68.82;27.98;;;-0.30;91.20;;;;;;5017137;28;20200;-73
2022/12/15 06:21:11;;;;;;;71.15;28.67;;;-0.30;91.00;;;;;;5021121;28;20209;-74
2022/12/15 06:23:38;;;;;;;75.78;28.50;;;-0.20;91.20;;;;;;5018042;28;20181;-72
2022/12/15 06:26:11;;;;;;;75.15;29.17;;;-0.20;90.80;;;;;;5024715;28;20191;-74
2022/12/15 06:28:38;;;;;;;72.70;28.38;;;-0.20;90.70;;;;;;5015441;28;20204;-74
2022/12/15 06:31:07;;;;;;;61.63;25.60;;;-0.10;90.60;;;;;;5026982;28;20209;-76
2022/12/15 06:33:33;;;;;;;67.18;27.52;;;-0.10;90.40;;;;;;5020537;28;20300;-74
2022/12/15 06:36:07;;;;;;;63.55;27.42;;;-0.20;90.30;;;;;;5020709;28;20602;-74
2022/12/15 06:38:33;;;;;;;59.25;26.00;;;-0.10;90.20;;;;;;5026187;28;20188;-74
2022/12/15 06:41:00;;;;;;;70.53;27.65;;;-0.10;89.90;;;;;;5022633;28;20217;-74
2022/12/15 06:43:26;;;;;;;67.38;28.90;;;-0.10;89.60;;;;;;5023566;28;20189;-74
2022/12/15 06:45:52;;;;;;;66.00;26.23;;;-0.10;89.60;;;;;;5022680;28;20273;-72
2022/12/15 06:48:18;;;;;;;65.07;29.77;;;-0.10;89.50;;;;;;5018277;28;20196;-72
2022/12/15 06:50:45;;;;;;;60.60;26.67;;;0.00;89.60;;;;;;5020489;28;20380;-74
2022/12/15 06:53:18;;;;;;;72.82;27.90;;;0.00;89.60;;;;;;5025220;28;20227;-73
2022/12/15 06:55:45;;;;;;;64.53;26.83;;;0.00;89.60;;;;;;5026811;28;20186;-74
2022/12/15 06:58:11;;;;;;;66.68;26.48;;;0.00;89.60;;;;;;5029237;28;20268;-72
2022/12/15 07:00:38;;;;;;;66.97;29.63;;;0.00;89.30;;;;;;5018722;28;20206;-73
2022/12/15 07:03:11;;;;;;;62.17;27.83;;;0.00;89.20;;;;;;5023704;28;20193;-72
2022/12/15 07:05:36;;;;;;;69.72;27.77;;;0.00;89.00;;;;;;5019779;28;20652;-73
2022/12/15 07:08:02;;;;;;;67.50;27.60;;;0.10;89.20;;;;;;5025286;28;20220;-73
2022/12/15 07:10:28;;;;;;;68.13;28.77;;;0.10;89.20;;;;;;5018153;28;20219;-73
2022/12/15 07:12:55;;;;;;;73.67;27.23;;;0.10;89.30;;;;;;5025306;28;20648;-72
2022/12/15 07:15:21;;;;;;;69.85;28.17;;;0.10;89.30;;;;;;5019758;28;20244;-74
2022/12/15 07:17:46;;;;;;;72.90;27.03;;;0.00;89.30;;;;;;5027027;28;20181;-73
2022/12/15 07:20:12;;;;;;;67.67;27.00;;;0.10;89.50;;;;;;5025663;28;20212;-72
2022/12/15 07:22:38;;;;;;;67.93;25.57;;;0.00;89.60;;;;;;5026166;28;20205;-73
2022/12/15 07:25:04;;;;;;;67.90;28.80;;;0.00;89.90;;;;;;5025815;28;20631;-73
2022/12/15 07:27:29;;;;;;;69.97;27.67;;;0.00;90.00;;;;;;5025656;28;20185;-74
2022/12/15 07:29:55;;;;;;;68.23;28.30;;;0.00;90.10;;;;;;5021729;28;20448;-73
2022/12/15 07:32:20;;;;;;;67.27;27.77;;;-0.10;90.10;;;;;;5028093;28;20239;-74
2022/12/15 07:34:46;;;;;;;69.57;26.67;;;-0.20;90.30;;;;;;5025249;28;20266;-74
2022/12/15 07:37:12;;;;;;;76.47;29.53;;;-0.10;90.50;;;;;;5021796;28;20927;-73
2022/12/15 07:39:37;;;;;;;69.17;27.07;;;-0.10;90.70;;;;;;5027722;28;20184;-74
2022/12/15 07:42:03;;;;;;;71.40;27.63;;;-0.20;90.50;;;;;;5024180;28;20883;-72
2022/12/15 07:44:28;;;;;;;67.60;27.77;;;-0.30;90.60;;;;;;5031386;28;20538;-75
2022/12/15 07:46:54;;;;;;;77.47;29.80;;;-0.30;90.80;;;;;;5023006;28;20215;-73
2022/12/15 07:49:20;;;;;;;66.53;27.53;;;-0.20;90.90;;;;;;5024809;28;20531;-75
2022/12/15 07:51:46;;;;;;;74.70;29.90;;;-0.20;91.00;;;;;;5017670;28;20477;-73
2022/12/15 07:54:13;;;;;;;63.00;28.10;;;-0.10;91.20;;;;;;5024509;28;20209;-74
2022/12/15 07:56:39;;;;;;;76.10;31.20;;;-0.10;91.00;;;;;;5024552;28;20193;-75
2022/12/15 07:59:06;;;;;;;66.80;27.88;;;-0.10;90.90;;;;;;5021472;28;20240;-74
2022/12/15 08:01:33;;;;;;;75.82;28.65;;;-0.10;90.90;;;;;;5023695;28;20216;-75
2022/12/15 08:03:59;;;;;;;77.47;28.48;;;-0.10;90.80;;;;;;5026054;28;20648;-74
2022/12/15 08:06:25;;;;;;;72.03;27.87;;;-0.20;90.70;;;;;;5025567;28;20185;-74
2022/12/15 08:08:50;;;;;;;78.30;28.70;;;-0.30;90.50;;;;;;5019744;28;20186;-73
2022/12/15 08:11:16;;;;;;;70.77;26.37;;;-0.20;90.70;;;;;;5026134;28;20268;-74
2022/12/15 08:13:43;;;;;;;72.40;28.30;;;-0.10;90.90;;;;;;5028052;28;20275;-75
2022/12/15 08:16:10;;;;;;;70.15;26.77;;;-0.10;90.90;;;;;;5026814;28;20435;-72
2022/12/15 08:18:35;;;;;;;66.90;27.33;;;0.00;90.60;;;;;;5027561;28;20181;-74
2022/12/15 08:21:07;;;;;;;63.07;27.27;;;-0.10;90.30;;;;;;5027436;28;20207;-75
2022/12/15 08:23:33;;;;;;;66.90;27.45;;;0.00;90.20;;;;;;5019963;28;20664;-73
2022/12/15 08:26:07;;;;;;;75.97;27.42;;;0.00;90.20;;;;;;5026657;28;20190;-72
2022/12/15 08:28:37;;;;;;;69.20;28.30;;;0.00;90.00;;;;;;5024907;28;20173;-75
2022/12/15 08:31:09;;;;;;;65.43;26.42;;;0.00;89.90;;;;;;5027970;28;20209;-75
2022/12/15 08:33:35;;;;;;;56.95;24.13;;;0.00;89.60;;;;;;5031240;28;20200;-75
2022/12/15 08:36:04;;;;;;;73.72;26.23;;;0.10;90.00;;;;;;5031936;28;20231;-75
2022/12/15 08:38:31;;;;;;;69.07;26.52;;;0.20;89.90;;;;;;5030927;28;20177;-76
2022/12/15 08:40:56;;;;;;;79.10;28.50;;;0.30;89.70;;;;;;5021835;28;20948;-75
2022/12/15 08:43:22;;;;;;;70.10;27.10;;;0.30;89.20;;;;;;5027474;28;20272;-73
2022/12/15 08:45:48;;;;;;;73.23;27.87;;;0.30;89.20;;;;;;5017424;28;20181;-73
2022/12/15 08:48:14;;;;;;;66.60;26.17;;;0.30;89.30;;;;;;5024967;28;20186;-74
2022/12/15 08:50:44;;;;;;;68.18;27.67;;;0.30;89.30;;;;;;5020562;28;20214;-75
2022/12/15 08:53:10;;;;;;;68.75;27.38;;;0.20;89.30;;;;;;5022396;28;20262;-75
2022/12/15 08:55:36;;;;;;;67.22;25.83;;;0.30;89.50;;;;;;5021772;28;20214;-73
2022/12/15 08:58:02;;;;;;;67.27;26.03;;;0.30;89.50;;;;;;5025127;28;20323;-74
2022/12/15 09:00:27;;;;;;;60.23;26.40;;;0.30;89.00;;;;;;5029124;28;20499;-75
2022/12/15 09:02:53;;;;;;;62.80;25.70;;;0.30;88.60;;;;;;5024552;28;20188;-73
2022/12/15 09:05:19;;;;;;;67.07;26.77;;;0.30;88.60;;;;;;5021598;28;20211;-73
2022/12/15 09:07:44;;;;;;;60.00;23.50;;;0.30;88.60;;;;;;5025124;28;20182;-72
2022/12/15 09:10:10;;;;;;;69.33;27.33;;;0.40;88.60;;;;;;5021858;28;20208;-73
2022/12/15 09:12:35;;;;;;;62.30;28.33;;;0.40;88.60;;;;;;5022037;28;20554;-73
2022/12/15 09:15:01;;;;;;;65.83;26.20;;;0.40;88.60;;;;;;5026551;28;20212;-73
2022/12/15 09:17:27;;;;;;;76.03;27.87;;;0.40;88.40;;;;;;5020793;28;20181;-72
2022/12/15 09:19:52;;;;;;;68.23;28.10;;;0.50;89.20;;;;;;5026713;28;20205;-73
2022/12/15 09:22:18;;;;;;;63.03;26.60;;;0.60;89.20;;;;;;5026001;28;20259;-72
2022/12/15 09:24:45;;;;;;;70.03;29.80;;;0.60;88.40;;;;;;5022275;28;20726;-71
2022/12/15 09:27:10;;;;;;;63.55;28.30;;;0.50;87.80;;;;;;5026968;28;20450;-73
2022/12/15 09:29:36;;;;;;;77.10;26.07;;;0.50;87.80;;;;;;5025096;28;20271;-71
2022/12/15 09:32:02;;;;;;;61.20;24.53;;;0.40;87.60;;;;;;5025208;28;20270;-73
2022/12/15 09:34:28;;;;;;;71.25;26.30;;;0.40;87.40;;;;;;5018956;28;20539;-75
2022/12/15 09:36:54;;;;;;;59.53;26.30;;;0.60;87.70;;;;;;5026667;28;20265;-74
2022/12/15 09:39:19;;;;;;;56.57;24.63;;;0.70;87.30;;;;;;5021576;28;20178;-74
2022/12/15 09:41:53;;;;;;;62.23;26.37;;;0.70;86.80;;;;;;5023329;28;20209;-72
2022/12/15 09:44:20;;;;;;;73.32;24.50;;;0.70;86.00;;;;;;5023170;28;20887;-74
2022/12/15 09:47:04;;;;;;;67.13;26.95;;;0.70;85.90;;;;;;5019468;28;20364;-75
2022/12/15 09:49:36;;;;;;;76.63;24.92;;;0.60;85.70;;;;;;5023618;28;21474;-75
2022/12/15 09:52:10;;;;;;;64.40;24.60;;;0.60;86.00;;;;;;5019894;28;20859;-74
2022/12/15 09:54:36;;;;;;;58.70;25.58;;;0.60;85.50;;;;;;5025772;28;20223;-75
2022/12/15 09:57:43;;;;;;;63.30;25.70;;;0.70;85.90;;;;;;5021167;28;20182;-74
2022/12/15 10:00:20;;;;;;;62.97;24.92;;;0.80;85.90;;;;;;5015067;28;20550;-74
2022/12/15 10:03:22;;;;;;;72.13;26.65;;;0.90;85.60;;;;;;5042700;28;20162;-74
2022/12/15 10:06:09;;;;;;;56.63;24.50;;;0.90;85.30;;;;;;5036548;28;20177;-74
2022/12/15 10:08:44;;;;;;;64.57;27.30;;;0.90;85.00;;;;;;5039332;28;20181;-74
2022/12/15 10:11:37;;;;;;;69.47;27.80;;;1.10;85.00;;;;;;5046132;28;20231;-73
2022/12/15 10:14:31;;;;;;;69.47;27.35;;;1.20;84.90;;;;;;5040969;28;20210;-73
2022/12/15 10:17:18;;;;;;;58.70;25.42;;;1.20;84.10;;;;;;5040955;28;20181;-75
2022/12/15 10:19:58;;;;;;;70.10;27.52;;;1.20;83.70;;;;;;5039893;28;20197;-73
2022/12/15 10:22:31;;;;;;;59.22;23.33;;;1.10;83.40;;;;;;5042042;28;20359;-74
2022/12/15 10:25:01;;;;;;;59.55;26.65;;;1.10;83.70;;;;;;5034040;28;20220;-75
2022/12/15 10:27:52;;;;;;;56.65;24.67;;;1.10;83.70;;;;;;5038754;28;20205;-75
2022/12/15 10:30:18;;;;;;;56.33;24.70;;;1.10;84.00;;;;;;5028605;28;20677;-76
2022/12/15 10:33:23;;;;;;;65.97;26.00;;;1.20;84.10;;;;;;5034874;28;20200;-72
2022/12/15 10:35:52;;;;;;;63.75;26.50;;;0.90;83.70;;;;;;5035061;28;20270;-75
2022/12/15 10:38:37;;;;;;;59.33;25.13;;;0.80;84.60;;;;;;5037741;28;20185;-75
2022/12/15 10:41:16;;;;;;;70.50;27.50;;;0.80;85.20;;;;;;5034355;28;20209;-76
2022/12/15 10:43:44;;;;;;;61.72;27.65;;;0.90;85.70;;;;;;5015607;28;20213;-75
2022/12/15 10:46:23;;;;;;;75.15;26.70;;;0.70;86.00;;;;;;5020014;28;20197;-75
2022/12/15 10:48:53;;;;;;;64.43;25.40;;;0.60;86.30;;;;;;5029903;28;20660;-76
2022/12/15 10:51:30;;;;;;;64.97;27.95;;;0.70;86.80;;;;;;5025281;28;20218;-75
2022/12/15 10:54:11;;;;;;;62.38;27.20;;;0.70;86.90;;;;;;5024750;28;20576;-76
2022/12/15 10:56:50;;;;;;;63.97;27.10;;;0.60;87.10;;;;;;5025074;28;20621;-75
2022/12/15 10:59:23;;;;;;;66.53;26.95;;;0.60;87.10;;;;;;5023643;28;20557;-74
2022/12/15 11:01:50;;;;;;;62.08;26.25;;;0.70;87.60;;;;;;5026990;28;20198;-76
2022/12/15 11:04:29;;;;;;;68.45;27.63;;;0.90;87.70;;;;;;5029092;28;20189;-75
2022/12/15 11:07:01;;;;;;;64.40;26.40;;;1.00;87.60;;;;;;5021567;28;20189;-77
2022/12/15 11:09:38;;;;;;;60.20;26.15;;;1.10;87.40;;;;;;5032166;28;20187;-77
2022/12/15 11:15:22;;;;;;;67.53;27.17;;;1.20;85.70;;;;;;5020281;28;20240;-76
2022/12/15 11:18:05;;;;;;;70.80;28.23;;;1.20;85.50;;;;;;5026081;28;20613;-76
2022/12/15 11:20:40;;;;;;;63.35;25.48;;;1.10;85.50;;;;;;5018538;28;20586;-80
2022/12/15 11:23:17;;;;;;;66.70;28.50;;;1.20;85.50;;;;;;5024127;28;20190;-75
2022/12/15 11:25:49;;;;;;;67.00;26.58;;;1.10;85.30;;;;;;5028052;28;20205;-75
2022/12/15 11:28:21;;;;;;;62.92;27.30;;;1.00;85.50;;;;;;5025530;28;20186;-76
2022/12/15 11:30:54;;;;;;;63.03;26.35;;;1.00;85.70;;;;;;5019849;28;20212;-76
2022/12/15 11:33:20;;;;;;;60.03;25.65;;;1.00;86.00;;;;;;5022853;28;20606;-76
2022/12/15 11:35:46;;;;;;;55.33;23.97;;;1.00;86.50;;;;;;5027999;28;20292;-77
2022/12/15 11:38:11;;;;;;;72.73;28.27;;;1.10;86.90;;;;;;5027433;28;20192;-75
2022/12/15 11:40:41;;;;;;;63.50;27.20;;;1.20;86.60;;;;;;5021838;28;20189;-76
2022/12/15 11:43:40;;;;;;;70.15;28.70;;;1.30;85.90;;;;;;5023140;28;20315;-75
2022/12/15 11:46:20;;;;;;;69.45;27.38;;;1.20;85.60;;;;;;5024854;28;20177;-71
2022/12/15 11:49:20;;;;;;;78.68;29.25;;;1.10;85.60;;;;;;5022450;28;20173;-76
2022/12/15 11:51:51;;;;;;;65.93;26.52;;;1.20;86.20;;;;;;5026482;28;20217;-76
2022/12/15 11:54:28;;;;;;;65.32;26.60;;;1.30;86.00;;;;;;5023385;28;20240;-74
2022/12/15 11:57:12;;;;;;;58.45;25.55;;;1.30;85.20;;;;;;5022477;28;20182;-75
2022/12/15 11:59:59;;;;;;;68.28;26.73;;;1.30;85.00;;;;;;5021950;28;20689;-76
2022/12/15 12:03:00;;;;;;;61.95;25.50;;;1.30;85.30;;;;;;5025573;28;20295;-76
2022/12/15 12:05:50;;;;;;;77.28;27.70;;;1.20;85.50;;;;;;5030079;28;20609;-76
2022/12/15 12:08:29;;;;;;;58.90;26.15;;;1.20;85.70;;;;;;5017743;28;20186;-75
2022/12/15 12:10:59;;;;;;;67.30;26.67;;;1.30;85.70;;;;;;5030059;28;20303;-74
2022/12/15 12:13:42;;;;;;;67.07;25.42;;;1.20;85.70;;;;;;5019720;28;20247;-76
2022/12/15 12:16:36;;;;;;;64.15;26.80;;;1.10;85.70;;;;;;5022757;28;20185;-77
2022/12/15 12:19:08;;;;;;;64.63;28.00;;;0.90;86.20;;;;;;5021628;28;20189;-75
2022/12/15 12:21:44;;;;;;;63.72;27.58;;;1.00;86.80;;;;;;5020110;28;20228;-77
2022/12/15 12:24:17;;;;;;;57.08;26.17;;;1.10;86.90;;;;;;5025343;28;20243;-75
2022/12/15 12:27:04;;;;;;;63.60;26.13;;;1.20;86.30;;;;;;5027834;28;20282;-75
2022/12/15 12:29:43;;;;;;;64.20;27.05;;;1.10;85.30;;;;;;5025668;28;20593;-74
2022/12/15 12:32:58;;;;;;;59.88;27.17;;;1.10;85.90;;;;;;5024281;28;20185;-76
2022/12/15 12:35:36;;;;;;;60.83;25.85;;;1.20;85.90;;;;;;5003748;28;20232;-74
2022/12/15 12:38:05;;;;;;;63.35;26.13;;;1.20;85.90;;;;;;5024348;28;20223;-75
2022/12/15 12:40:39;;;;;;;59.22;26.25;;;1.30;85.70;;;;;;5016937;28;20213;-76
2022/12/15 12:43:07;;;;;;;52.95;26.13;;;1.30;85.50;;;;;;5018685;28;20201;-76
2022/12/15 12:45:50;;;;;;;70.07;27.10;;;1.30;85.50;;;;;;5022757;28;20244;-77
2022/12/15 12:48:36;;;;;;;57.72;26.08;;;1.40;85.60;;;;;;5027239;28;20189;-75
2022/12/15 12:51:16;;;;;;;55.25;23.77;;;1.60;84.90;;;;;;5023589;28;20290;-75
2022/12/15 12:53:42;;;;;;;58.47;24.58;;;1.80;84.70;;;;;;5024457;28;20309;-76
2022/12/15 12:56:36;;;;;;;64.63;25.87;;;1.80;84.10;;;;;;5018483;28;20352;-75
2022/12/15 12:59:23;;;;;;;57.58;24.20;;;1.80;83.10;;;;;;5019364;28;20178;-75
2022/12/15 13:01:48;;;;;;;57.83;25.05;;;1.70;83.60;;;;;;5022425;28;20201;-76
2022/12/15 13:04:29;;;;;;;63.93;27.97;;;1.80;83.80;;;;;;5022229;28;20686;-75
2022/12/15 13:06:57;;;;;;;64.85;27.17;;;1.80;84.00;;;;;;5025089;28;20217;-74
2022/12/15 13:09:35;;;;;;;56.47;24.13;;;1.80;84.10;;;;;;5018540;28;20198;-75
2022/12/15 13:12:01;;;;;;;54.75;24.23;;;1.70;83.70;;;;;;5018334;28;20204;-74
2022/12/15 13:14:37;;;;;;;63.07;25.93;;;1.60;84.00;;;;;;5024483;28;20201;-75
2022/12/15 13:17:17;;;;;;;55.15;24.60;;;1.80;84.70;;;;;;5019859;28;20795;-74
2022/12/15 13:19:58;;;;;;;59.67;25.50;;;1.80;84.70;;;;;;5022452;28;20183;-74
2022/12/15 13:22:38;;;;;;;62.38;26.95;;;1.80;84.30;;;;;;5024244;28;20442;-75
2022/12/15 13:25:23;;;;;;;61.92;25.67;;;1.70;84.30;;;;;;5020126;28;20290;-74
2022/12/15 13:27:55;;;;;;;58.63;25.90;;;1.70;84.60;;;;;;5020199;28;20331;-74
2022/12/15 13:30:20;;;;;;;58.08;26.20;;;1.50;84.60;;;;;;5027170;28;20740;-75
2022/12/15 13:32:51;;;;;;;60.03;25.10;;;1.60;85.50;;;;;;5018737;28;20189;-74
2022/12/15 13:35:24;;;;;;;57.53;25.45;;;1.60;85.60;;;;;;5022955;28;20209;-75
2022/12/15 13:37:57;;;;;;;58.78;25.05;;;1.60;85.60;;;;;;5028619;28;20189;-75
2022/12/15 13:40:31;;;;;;;62.25;25.60;;;1.60;85.60;;;;;;5027567;28;20197;-75
2022/12/15 13:43:04;;;;;;;62.38;25.52;;;1.70;85.60;;;;;;5024273;28;20601;-75
2022/12/15 13:45:54;;;;;;;60.63;25.77;;;1.60;85.20;;;;;;5026759;28;20265;-78
2022/12/15 13:48:28;;;;;;;66.63;24.85;;;1.50;85.20;;;;;;5020716;28;20193;-75
2022/12/15 13:51:15;;;;;;;64.40;25.30;;;1.40;85.70;;;;;;5018966;28;20694;-75
2022/12/15 13:53:46;;;;;;;58.30;26.95;;;1.40;86.30;;;;;;5019714;28;20205;-77
2022/12/15 13:56:38;;;;;;;64.05;24.83;;;1.40;86.80;;;;;;5017102;28;20181;-77
2022/12/15 13:59:14;;;;;;;53.72;24.25;;;1.30;86.60;;;;;;5021283;28;20194;-76
2022/12/15 14:01:48;;;;;;;55.08;23.80;;;1.40;87.00;;;;;;5026185;28;20204;-75
2022/12/15 14:04:16;;;;;;;67.88;26.98;;;1.40;86.90;;;;;;5030304;28;20668;-74
2022/12/15 14:07:01;;;;;;;58.40;24.85;;;1.40;86.60;;;;;;5032246;28;20199;-76
2022/12/15 14:09:35;;;;;;;48.85;22.05;;;1.50;86.80;;;;;;5023447;28;20231;-76
2022/12/15 14:12:07;;;;;;;53.30;21.98;;;1.50;86.30;;;;;;5022287;28;20203;-75
2022/12/15 14:14:35;;;;;;;56.53;21.83;;;1.40;86.30;;;;;;5016722;28;20681;-74
2022/12/15 14:17:06;;;;;;;50.28;22.63;;;1.40;86.60;;;;;;5020233;28;20193;-76
2022/12/15 14:19:39;;;;;;;51.25;22.10;;;1.50;86.60;;;;;;5014374;28;20186;-75
2022/12/15 14:22:27;;;;;;;61.33;24.05;;;1.60;86.60;;;;;;5028136;28;20541;-75
2022/12/15 14:25:17;;;;;;;54.97;22.58;;;1.60;86.30;;;;;;5026182;28;20189;-75
2022/12/15 14:27:43;;;;;;;54.15;22.15;;;1.60;86.00;;;;;;5029379;28;20194;-74
2022/12/15 14:30:18;;;;;;;57.90;23.10;;;1.50;85.60;;;;;;5025456;28;20205;-77
2022/12/15 14:32:46;;;;;;;48.95;21.63;;;1.50;85.70;;;;;;5019270;28;20280;-75
2022/12/15 14:35:29;;;;;;;54.70;22.33;;;1.50;86.20;;;;;;5019524;28;20216;-75
2022/12/15 14:37:57;;;;;;;53.50;21.83;;;1.50;86.20;;;;;;5020151;28;20185;-76
2022/12/15 14:40:25;;;;;;;55.28;24.77;;;1.40;85.90;;;;;;5024587;28;20672;-73
2022/12/15 14:42:52;;;;;;;56.53;23.58;;;1.30;86.30;;;;;;5020541;28;20217;-75
2022/12/15 14:45:21;;;;;;;56.15;22.80;;;1.30;86.80;;;;;;5022882;28;20201;-76
2022/12/15 14:47:54;;;;;;;57.55;23.80;;;1.30;86.80;;;;;;5013360;28;20277;-73
2022/12/15 14:50:23;;;;;;;61.08;23.42;;;1.30;87.00;;;;;;5021846;28;20546;-75
2022/12/15 14:52:54;;;;;;;58.05;23.95;;;1.30;87.10;;;;;;5018852;28;20750;-75
2022/12/15 14:55:36;;;;;;;54.55;22.60;;;1.30;87.30;;;;;;5026322;28;20213;-76
2022/12/15 14:58:26;;;;;;;62.88;23.92;;;1.30;87.70;;;;;;5021051;28;20263;-76
2022/12/15 15:00:53;;;;;;;56.88;24.23;;;1.40;87.60;;;;;;5019396;28;20205;-74
2022/12/15 15:03:24;;;;;;;52.70;22.27;;;1.40;87.60;;;;;;5015861;28;20181;-75
2022/12/15 15:05:56;;;;;;;56.95;24.08;;;1.40;87.60;;;;;;5022685;28;20188;-76
2022/12/15 15:08:28;;;;;;;55.13;22.98;;;1.30;87.70;;;;;;5026608;28;20198;-77
2022/12/15 15:11:01;;;;;;;64.10;25.10;;;1.30;87.60;;;;;;5024942;28;20213;-74
2022/12/15 15:13:38;;;;;;;54.05;23.00;;;1.30;87.80;;;;;;5024239;28;20268;-76
2022/12/15 15:16:06;;;;;;;56.90;24.15;;;1.30;87.80;;;;;;5020191;28;20589;-77
2022/12/15 15:18:31;;;;;;;60.80;24.00;;;1.20;87.80;;;;;;5023686;28;20177;-75
2022/12/15 15:21:02;;;;;;;52.70;23.40;;;1.20;88.10;;;;;;5017057;28;20217;-76